»·PEaware :: BAW100T KSAN-KLAS

BAW100T :: KSAN-KLAS

FLIGHT INFORMATION

Flight Status: Arrived
Operator:
British Airways
More flights by this operator :: More flights under this callsign
Pilot: Eugene T. (2654)
Aircraft: BOEING 737-800
(B738)
More flights by this aircraft type
Origin: KSAN San Diego Intl-Lindbergh
United States
Destination: KLAS McCarran Intl
United States
More flights between these airports :: More routes between these airports
Route: PEBLE4 SXC LAX DAG KEPEC3
File this flight plan on PilotEdge
Remarks:
Altitude:
(Current/Filed)
29,000ft
Speed:
(Current/Filed)
460kts
Departed: 25-Feb-15 11:21 AM
Arrived: 25-Feb-15 12:07 PM
Distance/Time
Traveled:
225nm/0:46
Distance/Time
To Go:
Arrived

Flight Plot

Page will automatically refresh every two minutes.


Map Options




Map Legend


Flown Route
Filed Route
Departure Airport
Arrival Airport
Navaid (VOR, NDB)
Fix

Horizontal Profiles

Position Reports

Time Latitude Longitude Heading Altitude Ground
Speed
25-Feb-15 10:53 32.732446 -117.201730 100 26ft 0kts
25-Feb-15 10:54 32.732446 -117.201730 100 26ft 0kts
25-Feb-15 10:55 32.732446 -117.201730 100 26ft 0kts
25-Feb-15 10:56 32.732446 -117.201730 100 26ft 0kts
25-Feb-15 10:57 32.732446 -117.201730 100 26ft 0kts
25-Feb-15 10:58 32.732446 -117.201730 100 26ft 0kts
25-Feb-15 10:59 32.732446 -117.201730 100 26ft 0kts
25-Feb-15 11:00 32.732446 -117.201730 100 26ft 0kts
25-Feb-15 11:01 32.732446 -117.201730 100 26ft 0kts
25-Feb-15 11:02 32.732446 -117.201730 100 26ft 0kts
25-Feb-15 11:03 32.732492 -117.202007 100 26ft 2kts
25-Feb-15 11:04 32.733060 -117.202578 178 26ft 2kts
25-Feb-15 11:05 32.733187 -117.202566 191 26ft 0kts
25-Feb-15 11:06 32.733230 -117.202703 348 26ft 0kts
25-Feb-15 11:07 32.733383 -117.202738 349 26ft 8kts
25-Feb-15 11:08 32.735427 -117.201919 82 26ft 9kts
25-Feb-15 11:09 32.734504 -117.197870 106 26ft 15kts
25-Feb-15 11:10 32.733221 -117.192672 105 26ft 16kts
25-Feb-15 11:11 32.732079 -117.187896 105 26ft 13kts
25-Feb-15 11:12 32.730811 -117.182724 106 26ft 14kts
25-Feb-15 11:13 32.729640 -117.177804 105 26ft 15kts
25-Feb-15 11:14 32.729621 -117.176439 62 26ft 9kts
25-Feb-15 11:15 32.733831 -117.190591 286 39ft 165kts
25-Feb-15 11:16 32.753674 -117.241548 303 3422ft 176kts
25-Feb-15 11:17 32.780503 -117.291889 303 6140ft 193kts
25-Feb-15 11:18 32.814320 -117.355323 303 8516ft 243kts
25-Feb-15 11:19 32.854251 -117.430149 303 11276ft 297kts
25-Feb-15 11:20 32.922728 -117.495065 327 13914ft 343kts
25-Feb-15 11:21 33.007067 -117.562437 316 16493ft 376kts
25-Feb-15 11:22 33.071669 -117.663884 305 19416ft 391kts
25-Feb-15 11:23 33.137933 -117.769495 307 22082ft 402kts
25-Feb-15 11:24 33.233076 -117.832764 357 24260ft 424kts
25-Feb-15 11:25 33.339340 -117.764673 36 26149ft 456kts
25-Feb-15 11:26 33.445134 -117.673137 26 26839ft 474kts
25-Feb-15 11:27 33.559055 -117.591955 23 28105ft 479kts
25-Feb-15 11:28 33.674094 -117.510662 23 29235ft 478kts
25-Feb-15 11:29 33.788348 -117.429372 23 29259ft 475kts
25-Feb-15 11:30 33.902028 -117.348194 23 29241ft 475kts
25-Feb-15 11:31 34.015948 -117.266556 23 29255ft 475kts
25-Feb-15 11:32 34.129878 -117.184663 23 29267ft 475kts
25-Feb-15 11:33 34.243322 -117.102862 23 29278ft 475kts
25-Feb-15 11:34 34.357303 -117.020415 23 29290ft 476kts
25-Feb-15 11:35 34.471088 -116.937838 23 29305ft 476kts
25-Feb-15 11:36 34.582649 -116.856638 26 29300ft 460kts
25-Feb-15 11:37 34.693004 -116.776027 26 29284ft 463kts
25-Feb-15 11:38 34.802685 -116.695664 27 26818ft 457kts
25-Feb-15 11:39 34.909831 -116.616935 26 24776ft 438kts
25-Feb-15 11:40 35.008486 -116.525266 40 24260ft 455kts
25-Feb-15 11:41 35.096589 -116.412199 41 24246ft 459kts
25-Feb-15 11:42 35.185646 -116.299824 41 24237ft 459kts
25-Feb-15 11:43 35.274404 -116.188240 41 23251ft 454kts
25-Feb-15 11:44 35.361027 -116.079104 41 20847ft 429kts
25-Feb-15 11:45 35.437961 -115.981859 40 18385ft 370kts
25-Feb-15 11:46 35.508108 -115.892986 41 16056ft 359kts
25-Feb-15 11:47 35.575138 -115.807813 40 14370ft 324kts
25-Feb-15 11:48 35.634113 -115.732741 40 13180ft 291kts
25-Feb-15 11:49 35.690439 -115.660886 40 13024ft 291kts
25-Feb-15 11:50 35.746706 -115.589932 34 12572ft 285kts
25-Feb-15 11:51 35.813551 -115.539305 26 11594ft 279kts
25-Feb-15 11:52 35.879878 -115.489408 27 11093ft 277kts
25-Feb-15 11:53 35.945729 -115.439776 27 11024ft 277kts
25-Feb-15 11:54 36.001788 -115.376753 66 10336ft 283kts
25-Feb-15 11:55 36.016531 -115.279966 79 9217ft 289kts
25-Feb-15 11:56 36.024429 -115.181084 81 7398ft 284kts
25-Feb-15 11:57 36.031179 -115.098294 81 5504ft 208kts
25-Feb-15 11:58 36.041175 -115.036028 58 4009ft 171kts
25-Feb-15 11:59 36.072755 -115.049330 283 3621ft 164kts
25-Feb-15 12:00 36.073218 -115.104898 272 2474ft 151kts
25-Feb-15 12:01 36.073640 -115.144338 271 2192ft 18kts
25-Feb-15 12:02 36.074093 -115.149100 296 2192ft 17kts
25-Feb-15 12:03 36.076856 -115.152260 335 2192ft 13kts
25-Feb-15 12:04 36.077969 -115.150136 92 2192ft 13kts
25-Feb-15 12:05 36.077593 -115.144442 94 2192ft 20kts
25-Feb-15 12:06 36.077542 -115.136108 90 2192ft 28kts
25-Feb-15 12:07 36.078209 -115.130251 0 2192ft 15kts
25-Feb-15 12:08 36.079750 -115.129530 90 2192ft 0kts

Navigation Log

Ident Type
Flight plan parsing failed, navigation log unavailable